Time;durP1;ratioP1;P1;durP2;ratioP2;P2;SDS_P1;SDS_P2;PMS_P1;PMS_P2;Temp;Humidity;BMP_temperature;BMP_pressure;BME280_temperature;BME280_humidity;BME280_pressure;Samples;Min_cycle;Max_cycle;Signal;HPM_P1;HPM_P2
2022/05/09 00:00:26;;;;;;;0.00;0.00;;;7.60;99.90;;;;;;4927855;29;20075;-70
2022/05/09 00:02:51;;;;;;;0.00;0.00;;;8.50;99.90;;;;;;4927690;29;20055;-70
2022/05/09 00:05:19;;;;;;;0.00;0.00;;;7.60;99.90;;;;;;4929727;29;20130;-70
2022/05/09 00:07:46;;;;;;;0.00;0.00;;;7.50;99.90;;;;;;4930952;29;20111;-70
2022/05/09 00:10:14;;;;;;;0.00;0.00;;;7.50;99.90;;;;;;4931702;29;20487;-73
2022/05/09 00:12:39;;;;;;;0.00;0.00;;;7.50;99.90;;;;;;4931488;29;20452;-73
2022/05/09 00:15:06;;;;;;;0.00;0.00;;;7.50;99.90;;;;;;4931615;29;20090;-70
2022/05/09 00:17:31;;;;;;;0.00;0.00;;;7.50;99.90;;;;;;4931934;29;20044;-71
2022/05/09 00:19:57;;;;;;;0.00;0.00;;;7.50;99.90;;;;;;4931382;29;20067;-70
2022/05/09 00:22:23;;;;;;;0.00;0.00;;;7.40;99.90;;;;;;4930554;29;20127;-70
2022/05/09 00:24:49;;;;;;;0.00;0.00;;;7.40;99.90;;;;;;4931652;29;20078;-70
2022/05/09 00:27:14;;;;;;;0.00;0.00;;;7.60;99.90;;;;;;4931032;29;20051;-70
2022/05/09 00:29:40;;;;;;;0.00;0.00;;;7.40;99.90;;;;;;4931167;29;20060;-70
2022/05/09 00:32:06;;;;;;;0.00;0.00;;;7.30;99.90;;;;;;4931563;29;20328;-70
2022/05/09 00:34:33;;;;;;;0.00;0.00;;;7.30;99.90;;;;;;4931247;29;20131;-70
2022/05/09 00:36:59;;;;;;;0.00;0.00;;;7.30;99.90;;;;;;4930745;29;20059;-70
2022/05/09 00:39:25;;;;;;;0.00;0.00;;;7.30;99.90;;;;;;4913874;29;20062;-70
2022/05/09 00:41:51;;;;;;;0.00;0.00;;;7.30;99.90;;;;;;4931168;29;20522;-70
2022/05/09 00:44:21;;;;;;;0.00;0.00;;;7.30;99.90;;;;;;4930469;29;20055;-69
2022/05/09 00:46:52;;;;;;;0.00;0.00;;;7.20;99.90;;;;;;4941999;29;20047;-73
2022/05/09 00:49:19;;;;;;;0.00;0.00;;;7.30;99.90;;;;;;4931105;29;20372;-73
2022/05/09 00:52:03;;;;;;;0.00;0.00;;;7.20;99.90;;;;;;4930120;29;20415;-73
2022/05/09 00:54:36;;;;;;;0.00;0.00;;;7.30;99.90;;;;;;4930738;29;20067;-70
2022/05/09 00:57:10;;;;;;;0.00;0.00;;;7.20;99.90;;;;;;4931025;29;20044;-70
2022/05/09 00:59:38;;;;;;;0.00;0.00;;;7.30;99.90;;;;;;4930746;29;20055;-70
2022/05/09 01:02:04;;;;;;;0.10;0.10;;;7.20;99.90;;;;;;4931255;29;20044;-71
2022/05/09 01:04:35;;;;;;;0.00;0.00;;;7.20;99.90;;;;;;4930488;29;20046;-71
2022/05/09 01:07:01;;;;;;;0.00;0.00;;;7.20;99.90;;;;;;4929948;29;20047;-70
2022/05/09 01:09:26;;;;;;;0.00;0.00;;;7.10;99.90;;;;;;4930151;29;20070;-71
2022/05/09 01:11:52;;;;;;;0.00;0.00;;;7.10;99.90;;;;;;4930439;29;20056;-70
2022/05/09 01:14:24;;;;;;;0.00;0.00;;;7.10;99.90;;;;;;4930331;29;20423;-70
2022/05/09 01:16:50;;;;;;;0.00;0.00;;;7.10;99.90;;;;;;4930637;29;20051;-70
2022/05/09 01:19:28;;;;;;;0.00;0.00;;;7.10;99.90;;;;;;4930146;29;20047;-66
2022/05/09 01:21:54;;;;;;;0.00;0.00;;;7.10;99.90;;;;;;4912770;29;20054;-71
2022/05/09 01:24:23;;;;;;;0.00;0.00;;;7.10;99.90;;;;;;4930172;29;20758;-70
2022/05/09 01:26:49;;;;;;;0.00;0.00;;;7.10;99.90;;;;;;4930126;29;20040;-71
2022/05/09 01:29:43;;;;;;;0.00;0.00;;;7.10;99.90;;;;;;4913219;29;20051;-71
2022/05/09 01:32:12;;;;;;;0.28;0.28;;;7.10;99.90;;;;;;4930508;29;20126;-70
2022/05/09 01:34:43;;;;;;;0.00;0.00;;;7.10;99.90;;;;;;4930384;29;20036;-62
2022/05/09 01:37:09;;;;;;;0.00;0.00;;;7.10;99.90;;;;;;4929586;29;20060;-72
2022/05/09 01:39:36;;;;;;;0.00;0.00;;;7.00;99.90;;;;;;4930248;29;20036;-73
2022/05/09 01:42:07;;;;;;;0.00;0.00;;;7.00;99.90;;;;;;4930341;29;20408;-71
2022/05/09 01:44:34;;;;;;;0.00;0.00;;;7.10;99.90;;;;;;4913588;29;20396;-71
2022/05/09 01:49:46;;;;;;;0.00;0.00;;;7.00;99.90;;;;;;4890471;29;20044;-71
2022/05/09 01:52:17;;;;;;;0.00;0.00;;;7.00;99.90;;;;;;4928817;29;20039;-70
2022/05/09 01:54:43;;;;;;;0.00;0.00;;;7.00;99.90;;;;;;4929899;29;20047;-72
2022/05/09 01:57:10;;;;;;;0.00;0.00;;;6.90;99.90;;;;;;4930435;29;20048;-71
2022/05/09 01:59:38;;;;;;;0.00;0.00;;;7.40;99.90;;;;;;4929721;29;20052;-72
2022/05/09 02:02:13;;;;;;;0.00;0.00;;;6.90;99.90;;;;;;4929730;29;20043;-71
2022/05/09 02:04:40;;;;;;;0.00;0.00;;;6.80;99.90;;;;;;4929710;29;20078;-71
2022/05/09 02:07:09;;;;;;;0.00;0.00;;;6.80;99.90;;;;;;4927708;29;20043;-75
2022/05/09 02:09:41;;;;;;;0.00;0.00;;;6.80;99.90;;;;;;4929554;29;20474;-72
2022/05/09 02:12:07;;;;;;;0.00;0.00;;;6.80;99.90;;;;;;4930152;29;20407;-71
2022/05/09 02:14:33;;;;;;;0.00;0.00;;;6.80;99.90;;;;;;4929131;29;20044;-72
2022/05/09 02:16:58;;;;;;;0.00;0.00;;;6.80;99.90;;;;;;4929554;29;20054;-72
2022/05/09 02:19:24;;;;;;;0.00;0.00;;;6.80;99.90;;;;;;4929393;29;20089;-72
2022/05/09 02:21:50;;;;;;;0.00;0.00;;;6.80;99.90;;;;;;4928307;29;20047;-73
2022/05/09 02:24:16;;;;;;;0.00;0.00;;;6.80;99.90;;;;;;4928766;29;20044;-69
2022/05/09 02:26:41;;;;;;;0.10;0.10;;;6.80;99.90;;;;;;4929319;29;20070;-72
2022/05/09 02:29:07;;;;;;;0.00;0.00;;;6.80;99.90;;;;;;4929244;29;20051;-72
2022/05/09 02:31:34;;;;;;;0.00;0.00;;;6.70;99.90;;;;;;4928779;29;20052;-72
2022/05/09 02:34:01;;;;;;;0.00;0.00;;;6.70;99.90;;;;;;4929337;29;20532;-72
2022/05/09 02:36:27;;;;;;;0.00;0.00;;;6.70;99.90;;;;;;4928131;29;20119;-72
2022/05/09 02:38:53;;;;;;;0.00;0.00;;;6.60;99.90;;;;;;4928774;29;20055;-72
2022/05/09 02:41:18;;;;;;;0.00;0.00;;;6.60;99.90;;;;;;4928959;29;20110;-72
2022/05/09 02:43:44;;;;;;;0.00;0.00;;;6.50;99.90;;;;;;4929161;29;20046;-72
2022/05/09 02:46:10;;;;;;;0.00;0.00;;;6.50;99.90;;;;;;4936606;29;20050;-72
2022/05/09 02:48:37;;;;;;;0.00;0.00;;;6.40;99.90;;;;;;4931978;29;20063;-72
2022/05/09 02:51:05;;;;;;;0.00;0.00;;;6.40;99.90;;;;;;4928901;29;20166;-72
2022/05/09 02:53:31;;;;;;;0.00;0.00;;;6.50;99.90;;;;;;4927729;29;20575;-72
2022/05/09 02:55:56;;;;;;;0.00;0.00;;;6.50;99.90;;;;;;4911311;29;20051;-72
2022/05/09 02:58:22;;;;;;;0.10;0.10;;;6.50;99.90;;;;;;4927239;29;20043;-72
2022/05/09 03:00:48;;;;;;;0.00;0.00;;;6.50;99.90;;;;;;4928779;29;20055;-72
2022/05/09 03:05:58;;;;;;;0.00;0.00;;;6.50;99.90;;;;;;4928589;29;20044;-72
2022/05/09 03:08:24;;;;;;;0.00;0.00;;;7.30;99.90;;;;;;4927492;29;20055;-72
2022/05/09 03:10:50;;;;;;;0.00;0.00;;;6.50;99.90;;;;;;4928033;29;20095;-71
2022/05/09 03:13:16;;;;;;;0.00;0.00;;;6.60;99.90;;;;;;4911430;29;20056;-71
2022/05/09 03:15:44;;;;;;;0.00;0.00;;;6.60;99.90;;;;;;4927667;29;20046;-73
2022/05/09 03:18:11;;;;;;;0.00;0.00;;;6.50;99.90;;;;;;4928680;29;20079;-74
2022/05/09 03:20:38;;;;;;;0.00;0.00;;;6.50;99.90;;;;;;4928089;29;20059;-74
2022/05/09 03:23:05;;;;;;;0.00;0.00;;;6.60;99.90;;;;;;4927979;29;20071;-74
2022/05/09 03:25:31;;;;;;;0.00;0.00;;;6.60;99.90;;;;;;4927992;29;20043;-71
2022/05/09 03:27:57;;;;;;;0.00;0.00;;;6.60;99.90;;;;;;4927525;29;20407;-74
2022/05/09 03:30:24;;;;;;;0.10;0.10;;;6.60;99.90;;;;;;4911124;29;20050;-72
2022/05/09 03:32:50;;;;;;;0.00;0.00;;;6.60;99.90;;;;;;4928334;29;20462;-71
2022/05/09 03:35:16;;;;;;;0.00;0.00;;;6.60;99.90;;;;;;4927750;29;20087;-70
2022/05/09 03:37:42;;;;;;;0.00;0.00;;;6.60;99.90;;;;;;4927972;29;20455;-73
2022/05/09 03:40:09;;;;;;;0.00;0.00;;;6.60;99.90;;;;;;4927505;29;20047;-71
2022/05/09 03:42:34;;;;;;;0.00;0.00;;;6.50;99.90;;;;;;4927657;29;20071;-71
2022/05/09 03:45:00;;;;;;;0.00;0.00;;;6.70;99.90;;;;;;4930691;29;20066;-71
2022/05/09 03:47:26;;;;;;;0.00;0.00;;;6.50;99.90;;;;;;4936056;29;20076;-73
2022/05/09 03:49:54;;;;;;;0.00;0.00;;;6.50;99.90;;;;;;4927206;29;20051;-71
2022/05/09 03:52:20;;;;;;;0.00;0.00;;;6.70;99.90;;;;;;4927437;29;20483;-71
2022/05/09 03:54:45;;;;;;;0.00;0.00;;;6.50;99.90;;;;;;4928302;29;20048;-73
2022/05/09 03:57:11;;;;;;;0.00;0.00;;;6.50;99.90;;;;;;4928491;29;20067;-71
2022/05/09 03:59:37;;;;;;;0.00;0.00;;;6.70;99.90;;;;;;4927657;29;20047;-71
2022/05/09 04:02:02;;;;;;;0.00;0.00;;;6.50;99.90;;;;;;4927980;29;20051;-71
2022/05/09 04:04:28;;;;;;;0.00;0.00;;;6.50;99.90;;;;;;4927470;29;20094;-71
2022/05/09 04:06:53;;;;;;;0.00;0.00;;;6.50;99.90;;;;;;4927035;29;20103;-72
2022/05/09 04:09:20;;;;;;;0.00;0.00;;;6.40;99.90;;;;;;4927570;29;20499;-71
2022/05/09 04:11:47;;;;;;;0.00;0.00;;;6.40;99.90;;;;;;4928117;29;20122;-66
2022/05/09 04:14:13;;;;;;;0.00;0.00;;;6.40;99.90;;;;;;4928151;29;20047;-74
2022/05/09 04:16:51;;;;;;;0.00;0.00;;;6.70;99.90;;;;;;4927697;29;20402;-74
2022/05/09 04:19:20;;;;;;;0.00;0.00;;;6.50;99.90;;;;;;4927945;29;20075;-73
2022/05/09 04:21:47;;;;;;;0.00;0.00;;;6.50;99.90;;;;;;4927033;29;20047;-74
2022/05/09 04:24:13;;;;;;;0.00;0.00;;;6.50;99.90;;;;;;4910987;29;20040;-75
2022/05/09 04:26:39;;;;;;;0.00;0.00;;;6.50;99.90;;;;;;4927393;29;20095;-71
2022/05/09 04:29:04;;;;;;;0.00;0.00;;;6.60;99.90;;;;;;4910909;29;20064;-71
2022/05/09 04:31:30;;;;;;;0.00;0.00;;;6.70;99.90;;;;;;4927077;29;20047;-71
2022/05/09 04:33:58;;;;;;;0.00;0.00;;;6.70;99.90;;;;;;4927971;29;20155;-71
2022/05/09 04:36:26;;;;;;;0.00;0.00;;;6.70;99.90;;;;;;4926824;29;20044;-72
2022/05/09 04:38:52;;;;;;;0.00;0.00;;;7.70;99.90;;;;;;4910347;29;20050;-71
2022/05/09 04:41:19;;;;;;;0.00;0.00;;;6.80;99.90;;;;;;4910423;29;20134;-70
2022/05/09 04:43:46;;;;;;;0.00;0.00;;;6.90;99.90;;;;;;4910833;29;20056;-74
2022/05/09 04:46:13;;;;;;;0.00;0.00;;;7.10;99.90;;;;;;4935277;29;20157;-74
2022/05/09 04:48:41;;;;;;;0.00;0.00;;;7.40;99.90;;;;;;4929989;29;20048;-74
2022/05/09 04:51:08;;;;;;;0.00;0.00;;;7.70;99.90;;;;;;4928256;29;20418;-71
2022/05/09 04:53:33;;;;;;;0.00;0.00;;;7.90;99.90;;;;;;4930427;29;20051;-71
2022/05/09 04:55:59;;;;;;;0.00;0.00;;;8.30;99.90;;;;;;4931155;29;20518;-71
2022/05/09 04:58:25;;;;;;;0.10;0.10;;;8.70;99.90;;;;;;4930559;29;20059;-71
2022/05/09 05:00:51;;;;;;;0.00;0.00;;;9.00;99.90;;;;;;4931044;29;20043;-71
2022/05/09 05:03:17;;;;;;;0.00;0.00;;;9.30;99.90;;;;;;4913001;29;20500;-71
2022/05/09 05:05:43;;;;;;;0.00;0.00;;;9.40;99.90;;;;;;4931245;29;20079;-71
2022/05/09 05:08:09;;;;;;;0.00;0.00;;;9.50;99.90;;;;;;4930054;29;20102;-72
2022/05/09 05:10:34;;;;;;;0.00;0.00;;;9.70;99.90;;;;;;4930338;29;20051;-71
2022/05/09 05:13:03;;;;;;;0.00;0.00;;;10.00;99.90;;;;;;4930855;29;20562;-72
2022/05/09 05:15:29;;;;;;;0.00;0.00;;;10.10;99.90;;;;;;4929223;29;20046;-73
2022/05/09 05:17:56;;;;;;;0.00;0.00;;;10.40;99.90;;;;;;4913540;29;20058;-73
2022/05/09 05:20:22;;;;;;;0.00;0.00;;;11.60;99.90;;;;;;4928856;29;20083;-73
2022/05/09 05:22:49;;;;;;;0.00;0.00;;;10.40;99.90;;;;;;4929702;29;20376;-71
2022/05/09 05:25:23;;;;;;;0.10;0.10;;;10.40;99.90;;;;;;4930718;29;20050;-73
2022/05/09 05:27:49;;;;;;;;;;;10.40;99.90;;;;;;4931019;29;20047;-73
2022/05/09 05:30:16;;;;;;;0.20;0.20;;;10.70;99.90;;;;;;4930727;29;20337;-74
2022/05/09 05:32:42;;;;;;;0.00;0.00;;;10.90;99.90;;;;;;4930569;29;20133;-73
2022/05/09 05:35:14;;;;;;;0.00;0.00;;;11.50;99.90;;;;;;4929975;29;20048;-71
2022/05/09 05:37:40;;;;;;;0.00;0.00;;;11.60;99.90;;;;;;4929133;29;20052;-71
2022/05/09 05:40:07;;;;;;;0.00;0.00;;;12.00;99.90;;;;;;4929844;29;20048;-70
2022/05/09 05:42:33;;;;;;;0.00;0.00;;;12.10;99.90;;;;;;4929721;29;20419;-71
2022/05/09 05:44:59;;;;;;;0.00;0.00;;;12.20;99.90;;;;;;4932391;29;20102;-71
2022/05/09 05:47:25;;;;;;;1.25;0.20;;;12.80;99.90;;;;;;4938119;28;20454;-71
2022/05/09 05:49:51;;;;;;;0.00;0.00;;;12.40;99.90;;;;;;4929660;29;20501;-71
2022/05/09 05:52:17;;;;;;;0.00;0.00;;;12.70;99.90;;;;;;4929038;29;20047;-71
2022/05/09 05:54:44;;;;;;;0.00;0.00;;;12.90;99.90;;;;;;4930004;29;20519;-72
2022/05/09 05:57:34;;;;;;;0.00;0.00;;;13.00;99.90;;;;;;4912529;29;20051;-71
2022/05/09 06:00:13;;;;;;;0.00;0.00;;;13.20;99.90;;;;;;4929402;29;20052;-71
2022/05/09 06:02:39;;;;;;;0.00;0.00;;;13.30;99.90;;;;;;4927953;29;20046;-71
2022/05/09 06:05:09;;;;;;;0.08;0.08;;;13.40;99.90;;;;;;4928298;29;20043;-71
2022/05/09 06:07:36;;;;;;;0.00;0.00;;;13.40;99.90;;;;;;4928440;29;20058;-71
2022/05/09 06:10:01;;;;;;;0.00;0.00;;;13.50;99.90;;;;;;4928981;29;20123;-71
2022/05/09 06:12:28;;;;;;;0.00;0.00;;;13.60;99.90;;;;;;4929258;29;20052;-70
2022/05/09 06:17:38;;;;;;;0.00;0.00;;;13.90;99.90;;;;;;4928917;29;20059;-70
2022/05/09 06:20:10;;;;;;;0.00;0.00;;;13.90;99.90;;;;;;4912287;29;20056;-70
2022/05/09 06:22:38;;;;;;;0.00;0.00;;;14.10;99.90;;;;;;4911568;29;20107;-68
2022/05/09 06:25:06;;;;;;;0.10;0.10;;;14.00;99.90;;;;;;4928829;29;20047;-70
2022/05/09 06:27:32;;;;;;;0.00;0.00;;;13.80;99.90;;;;;;4929382;29;20051;-70
2022/05/09 06:30:00;;;;;;;0.00;0.00;;;13.90;99.90;;;;;;4928781;29;20189;-69
2022/05/09 06:32:26;;;;;;;0.08;0.08;;;13.90;99.90;;;;;;4928734;29;20118;-70
2022/05/09 06:34:52;;;;;;;0.00;0.00;;;14.20;99.90;;;;;;4929224;29;20195;-72
2022/05/09 06:37:18;;;;;;;0.00;0.00;;;14.60;99.90;;;;;;4911057;29;20491;-71
2022/05/09 06:39:44;;;;;;;0.00;0.00;;;14.80;99.90;;;;;;4929444;29;20072;-71
2022/05/09 06:42:10;;;;;;;0.00;0.00;;;14.80;99.90;;;;;;4928727;29;20384;-70
2022/05/09 06:44:36;;;;;;;0.00;0.00;;;14.40;99.90;;;;;;4953056;28;20062;-69
2022/05/09 06:47:03;;;;;;;0.00;0.00;;;14.40;99.90;;;;;;4939121;29;20396;-70
2022/05/09 06:49:30;;;;;;;0.00;0.00;;;14.40;99.90;;;;;;4928312;29;20048;-70
2022/05/09 06:51:55;;;;;;;0.00;0.00;;;14.80;99.90;;;;;;4927995;29;20066;-70
2022/05/09 06:54:22;;;;;;;0.00;0.00;;;14.90;99.90;;;;;;4928724;29;20487;-69
2022/05/09 06:56:48;;;;;;;0.00;0.00;;;14.60;99.90;;;;;;4911075;29;20106;-68
2022/05/09 06:59:14;;;;;;;0.00;0.00;;;15.20;99.90;;;;;;4928808;29;20051;-67
2022/05/09 07:01:40;;;;;;;0.00;0.00;;;15.40;99.90;;;;;;4928639;29;20130;-68
2022/05/09 07:04:05;;;;;;;0.10;0.10;;;15.50;99.90;;;;;;4928630;29;20578;-68
2022/05/09 07:06:31;;;;;;;0.00;0.00;;;15.70;99.90;;;;;;4926971;29;20658;-68
2022/05/09 07:08:57;;;;;;;0.00;0.00;;;16.00;99.90;;;;;;4928375;29;20060;-70
2022/05/09 07:11:22;;;;;;;0.00;0.00;;;16.00;99.90;;;;;;4911290;29;20055;-71
2022/05/09 07:13:48;;;;;;;0.00;0.00;;;16.10;99.90;;;;;;4927656;29;20047;-71
2022/05/09 07:16:14;;;;;;;0.00;0.00;;;16.20;99.90;;;;;;4911893;29;20114;-69
2022/05/09 07:18:41;;;;;;;0.00;0.00;;;16.20;99.90;;;;;;4928324;29;20046;-66
2022/05/09 07:21:07;;;;;;;0.00;0.00;;;16.40;99.90;;;;;;4927714;29;20046;-67
2022/05/09 07:23:34;;;;;;;0.00;0.00;;;15.30;99.90;;;;;;4927643;29;20051;-66
2022/05/09 07:26:01;;;;;;;0.00;0.00;;;16.00;99.90;;;;;;4928320;29;20047;-66
2022/05/09 07:28:28;;;;;;;0.00;0.00;;;15.80;99.90;;;;;;4926669;29;20126;-67
2022/05/09 07:30:56;;;;;;;0.00;0.00;;;15.70;99.90;;;;;;4927719;29;20044;-66
2022/05/09 07:33:22;;;;;;;0.00;0.00;;;16.10;99.90;;;;;;4927891;29;20048;-66
2022/05/09 07:35:49;;;;;;;0.00;0.00;;;16.30;99.90;;;;;;4926117;29;20175;-66
2022/05/09 07:38:15;;;;;;;0.00;0.00;;;16.70;99.90;;;;;;4926743;29;20403;-66
2022/05/09 07:40:43;;;;;;;0.00;0.00;;;16.40;99.90;;;;;;4928297;29;20780;-66
2022/05/09 07:43:15;;;;;;;0.00;0.00;;;16.60;99.90;;;;;;4927983;29;20325;-67
2022/05/09 07:45:43;;;;;;;0.00;0.00;;;16.90;99.90;;;;;;4931621;29;20058;-67
2022/05/09 07:48:10;;;;;;;0.00;0.00;;;16.10;99.90;;;;;;4917532;29;20067;-66
2022/05/09 07:50:36;;;;;;;1.55;0.17;;;16.70;99.90;;;;;;4926091;29;20609;-66
2022/05/09 07:53:14;;;;;;;0.00;0.00;;;16.50;99.90;;;;;;4926527;29;20051;-67
2022/05/09 07:55:42;;;;;;;0.00;0.00;;;17.00;99.90;;;;;;4927700;29;20039;-68
2022/05/09 07:58:09;;;;;;;0.00;0.00;;;17.10;99.90;;;;;;4927967;29;20654;-66
2022/05/09 08:00:36;;;;;;;0.00;0.00;;;17.20;99.90;;;;;;4927338;29;20487;-67
2022/05/09 08:03:02;;;;;;;0.03;0.03;;;17.50;99.90;;;;;;4911083;29;20054;-67
2022/05/09 08:05:28;;;;;;;0.00;0.00;;;17.80;99.90;;;;;;4927007;29;20039;-67
2022/05/09 08:07:54;;;;;;;0.00;0.00;;;17.90;99.90;;;;;;4927465;29;20062;-67
2022/05/09 08:10:21;;;;;;;0.00;0.00;;;17.90;99.90;;;;;;4927257;29;20066;-66
2022/05/09 08:12:47;;;;;;;0.00;0.00;;;17.90;99.90;;;;;;4910944;29;20435;-66
2022/05/09 08:15:16;;;;;;;0.00;0.00;;;18.00;99.90;;;;;;4928038;29;20058;-68
2022/05/09 08:17:44;;;;;;;0.00;0.00;;;18.10;99.90;;;;;;4927501;29;20124;-65
2022/05/09 08:20:11;;;;;;;0.00;0.00;;;18.40;99.90;;;;;;4927899;29;20063;-67
2022/05/09 08:22:36;;;;;;;0.00;0.00;;;18.70;99.90;;;;;;4926533;29;20058;-68
2022/05/09 08:25:05;;;;;;;0.00;0.00;;;18.70;99.90;;;;;;4927452;29;20134;-68
2022/05/09 08:27:31;;;;;;;0.00;0.00;;;18.40;99.90;;;;;;4931047;29;20046;-67
2022/05/09 08:29:58;;;;;;;0.00;0.00;;;18.10;99.90;;;;;;4914175;29;20043;-67
2022/05/09 08:32:25;;;;;;;0.00;0.00;;;18.20;99.90;;;;;;4930909;29;20059;-67
2022/05/09 08:34:51;;;;;;;0.00;0.00;;;18.60;99.90;;;;;;4931575;29;20135;-68
2022/05/09 08:37:18;;;;;;;0.00;0.00;;;18.80;99.90;;;;;;4913070;29;20103;-68
2022/05/09 08:39:45;;;;;;;0.00;0.00;;;19.00;99.90;;;;;;4931455;29;20052;-68
2022/05/09 08:42:25;;;;;;;0.00;0.00;;;18.90;99.90;;;;;;4931545;29;20047;-67
2022/05/09 08:45:03;;;;;;;0.00;0.00;;;19.40;99.90;;;;;;4932628;29;20131;-67
2022/05/09 08:47:51;;;;;;;0.10;0.10;;;19.70;99.90;;;;;;4921866;29;20052;-68
2022/05/09 08:50:37;;;;;;;0.00;0.00;;;19.90;99.90;;;;;;4912988;29;20506;-67
2022/05/09 08:53:17;;;;;;;0.00;0.00;;;20.00;99.90;;;;;;4930818;29;20048;-67
2022/05/09 08:55:45;;;;;;;0.00;0.00;;;19.90;99.90;;;;;;4931152;29;20292;-69
2022/05/09 08:58:40;;;;;;;0.00;0.00;;;19.60;99.90;;;;;;4931071;29;20431;-69
2022/05/09 09:01:24;;;;;;;0.00;0.00;;;19.80;99.90;;;;;;4930849;29;20496;-69
2022/05/09 09:03:59;;;;;;;0.00;0.00;;;20.20;99.90;;;;;;4930871;29;20438;-68
2022/05/09 09:06:45;;;;;;;0.00;0.00;;;20.20;99.90;;;;;;4929516;29;20131;-68
2022/05/09 09:09:40;;;;;;;0.00;0.00;;;20.40;99.90;;;;;;4913136;29;20056;-68
2022/05/09 09:12:24;;;;;;;0.00;0.00;;;20.80;99.90;;;;;;4907975;29;20055;-68
2022/05/09 09:14:59;;;;;;;;;;;21.00;99.90;;;;;;4936552;28;20057;-66
2022/05/09 09:18:02;;;;;;;0.00;0.00;;;21.10;99.90;;;;;;4947334;29;19978;-67
2022/05/09 09:20:32;;;;;;;0.20;0.20;;;21.10;99.90;;;;;;4935294;29;20048;-69
2022/05/09 09:23:35;;;;;;;0.00;0.00;;;20.60;99.90;;;;;;4946923;28;20577;-68
2022/05/09 09:26:21;;;;;;;0.00;0.00;;;20.20;99.90;;;;;;4947947;28;20069;-68
2022/05/09 09:28:58;;;;;;;0.00;0.00;;;20.40;99.90;;;;;;4947246;29;20082;-68
2022/05/09 09:31:28;;;;;;;0.00;0.00;;;20.00;99.90;;;;;;4930220;29;20141;-68
2022/05/09 09:34:17;;;;;;;0.05;0.05;;;19.70;99.90;;;;;;4947548;29;20047;-67
2022/05/09 09:37:00;;;;;;;0.10;0.10;;;19.80;99.90;;;;;;4908979;28;20059;-68
2022/05/09 09:39:26;;;;;;;0.00;0.00;;;19.40;99.90;;;;;;4946712;29;20093;-68
2022/05/09 09:41:52;;;;;;;0.00;0.00;;;19.60;99.90;;;;;;4947110;29;20063;-69
2022/05/09 09:44:23;;;;;;;0.00;0.00;;;20.30;99.90;;;;;;4947222;29;20054;-68
2022/05/09 09:47:02;;;;;;;0.00;0.00;;;20.60;99.90;;;;;;4938991;29;20094;-67
2022/05/09 09:49:28;;;;;;;0.10;0.10;;;20.50;99.90;;;;;;4927846;29;20055;-67
2022/05/09 09:51:53;;;;;;;0.00;0.00;;;20.60;99.90;;;;;;4927334;29;20047;-68
2022/05/09 09:54:22;;;;;;;0.00;0.00;;;20.70;99.90;;;;;;4927372;29;20529;-68
2022/05/09 09:56:48;;;;;;;0.00;0.00;;;20.70;99.90;;;;;;4928003;29;20054;-67
2022/05/09 09:59:14;;;;;;;0.00;0.00;;;21.20;99.90;;;;;;4928804;29;20511;-68
2022/05/09 10:01:40;;;;;;;0.00;0.00;;;21.70;99.90;;;;;;4927577;29;20052;-67
2022/05/09 10:04:09;;;;;;;0.00;0.00;;;21.80;99.90;;;;;;4927420;29;20055;-68
2022/05/09 10:06:54;;;;;;;0.00;0.00;;;21.50;99.90;;;;;;4926836;29;20047;-68
2022/05/09 10:09:21;;;;;;;0.00;0.00;;;21.80;99.90;;;;;;4900417;29;1073295;-67
2022/05/09 10:11:47;;;;;;;0.00;0.00;;;21.50;99.90;;;;;;4930495;29;20142;-67
2022/05/09 10:14:32;;;;;;;0.00;0.00;;;21.50;99.90;;;;;;4948003;29;20070;-68
2022/05/09 10:17:18;;;;;;;0.00;0.00;;;22.20;99.90;;;;;;4947344;29;20604;-67
2022/05/09 10:19:44;;;;;;;0.00;0.00;;;22.10;99.40;;;;;;4912802;29;20058;-67
2022/05/09 10:25:16;;;;;;;0.10;0.10;;;21.80;99.40;;;;;;4928523;29;20051;-68
2022/05/09 10:27:43;;;;;;;0.03;0.03;;;22.10;99.30;;;;;;4947453;28;20058;-67
2022/05/09 10:30:09;;;;;;;0.00;0.00;;;21.90;99.50;;;;;;4947698;29;20055;-68
2022/05/09 10:32:54;;;;;;;0.00;0.00;;;21.80;99.30;;;;;;4947245;29;20050;-67
2022/05/09 10:35:35;;;;;;;0.00;0.00;;;22.10;99.00;;;;;;4946474;29;20043;-67
2022/05/09 10:38:23;;;;;;;0.00;0.00;;;22.10;99.20;;;;;;4946897;28;20048;-68
2022/05/09 10:40:54;;;;;;;0.00;0.00;;;21.90;98.90;;;;;;4947974;29;20407;-67
2022/05/09 10:43:29;;;;;;;0.10;0.10;;;22.50;99.00;;;;;;4947343;29;20043;-67
2022/05/09 10:45:55;;;;;;;0.00;0.00;;;22.60;98.80;;;;;;4941813;29;20828;-67
2022/05/09 10:48:34;;;;;;;0.00;0.00;;;22.60;98.30;;;;;;4915829;29;20055;-68
2022/05/09 10:51:35;;;;;;;0.10;0.10;;;22.10;98.10;;;;;;4927592;29;20064;-67
2022/05/09 10:54:12;;;;;;;0.10;0.10;;;21.60;98.80;;;;;;4898042;29;20503;-67
2022/05/09 10:57:00;;;;;;;0.00;0.00;;;21.60;99.00;;;;;;4927914;29;20466;-67
2022/05/09 10:59:27;;;;;;;0.10;0.10;;;21.40;98.20;;;;;;4927184;29;20050;-68
2022/05/09 11:02:09;;;;;;;0.00;0.00;;;21.30;98.90;;;;;;4926921;29;20048;-67
2022/05/09 11:04:37;;;;;;;0.00;0.00;;;21.50;98.50;;;;;;4927688;29;20048;-68
2022/05/09 11:07:35;;;;;;;0.00;0.00;;;21.70;98.80;;;;;;4926182;29;20122;-67
2022/05/09 11:10:25;;;;;;;0.13;0.10;;;22.00;98.30;;;;;;4927264;29;20052;-67
2022/05/09 11:13:02;;;;;;;0.00;0.00;;;22.20;98.80;;;;;;4927834;29;20411;-67
2022/05/09 11:15:46;;;;;;;0.10;0.10;;;22.80;99.60;;;;;;4926676;29;20062;-67
2022/05/09 11:18:24;;;;;;;0.15;0.08;;;22.70;98.20;;;;;;4928263;29;20043;-67
2022/05/09 11:21:28;;;;;;;0.00;0.00;;;22.70;98.10;;;;;;4927035;29;20049;-67
2022/05/09 11:24:15;;;;;;;0.00;0.00;;;22.60;98.30;;;;;;4910462;29;20068;-68
2022/05/09 11:26:53;;;;;;;0.00;0.00;;;22.30;98.00;;;;;;4928438;29;20106;-67
2022/05/09 11:29:29;;;;;;;0.00;0.00;;;22.20;98.20;;;;;;4927334;29;20139;-67
2022/05/09 11:32:19;;;;;;;1.10;0.43;;;22.50;97.90;;;;;;4928043;29;20051;-68
2022/05/09 11:35:07;;;;;;;0.05;0.05;;;22.70;98.60;;;;;;4927576;29;20130;-67
2022/05/09 11:38:03;;;;;;;0.10;0.10;;;22.50;98.20;;;;;;4927446;29;20118;-68
2022/05/09 11:40:32;;;;;;;0.00;0.00;;;22.40;98.40;;;;;;4926320;29;20055;-68
2022/05/09 11:43:37;;;;;;;0.10;0.05;;;22.50;98.70;;;;;;4927359;29;20043;-67
2022/05/09 11:46:23;;;;;;;0.00;0.00;;;22.90;98.20;;;;;;4934423;29;20051;-67
2022/05/09 11:49:14;;;;;;;0.00;0.00;;;23.30;98.30;;;;;;4928858;29;20051;-68
2022/05/09 11:52:01;;;;;;;0.00;0.00;;;23.10;97.70;;;;;;4926815;29;20062;-68
2022/05/09 11:54:38;;;;;;;0.00;0.00;;;23.30;98.20;;;;;;4927548;29;20051;-67
2022/05/09 11:57:26;;;;;;;0.00;0.00;;;23.50;97.80;;;;;;4927551;29;20066;-68
2022/05/09 11:59:58;;;;;;;0.00;0.00;;;23.70;97.80;;;;;;4927425;29;20071;-68
2022/05/09 12:02:50;;;;;;;0.00;0.00;;;23.10;97.60;;;;;;4930966;29;20048;-69
2022/05/09 12:05:25;;;;;;;0.00;0.00;;;23.20;98.10;;;;;;4912979;29;20134;-66
2022/05/09 12:07:55;;;;;;;0.00;0.00;;;23.20;98.60;;;;;;4930000;29;20067;-67
2022/05/09 12:10:28;;;;;;;0.00;0.00;;;23.30;97.90;;;;;;4913810;29;20067;-68
2022/05/09 12:13:04;;;;;;;0.00;0.00;;;23.00;98.30;;;;;;4931315;29;20051;-68
2022/05/09 12:15:29;;;;;;;0.00;0.00;;;23.10;98.30;;;;;;4931135;29;20070;-67
2022/05/09 12:17:58;;;;;;;0.00;0.00;;;23.30;98.60;;;;;;4931114;29;20470;-68
2022/05/09 12:20:26;;;;;;;0.00;0.00;;;23.70;98.10;;;;;;4919320;29;20056;-67
2022/05/09 12:22:57;;;;;;;0.10;0.10;;;23.20;98.20;;;;;;4930982;29;20048;-68
2022/05/09 12:25:44;;;;;;;0.63;0.20;;;23.20;97.50;;;;;;4930604;29;20048;-67
2022/05/09 12:28:18;;;;;;;0.10;0.10;;;22.60;97.70;;;;;;4946779;29;20047;-67
2022/05/09 12:30:51;;;;;;;0.00;0.00;;;22.60;98.30;;;;;;4950100;29;20055;-67
2022/05/09 12:33:26;;;;;;;0.10;0.10;;;22.90;98.10;;;;;;4950271;29;20499;-67
2022/05/09 12:35:55;;;;;;;0.00;0.00;;;23.10;98.00;;;;;;4931839;29;20051;-67
2022/05/09 12:38:24;;;;;;;0.00;0.00;;;23.50;97.70;;;;;;4941747;29;20106;-69
2022/05/09 12:41:07;;;;;;;0.00;0.00;;;23.70;97.50;;;;;;4937118;29;20051;-69
2022/05/09 12:43:35;;;;;;;0.00;0.00;;;23.70;98.30;;;;;;4938617;29;20510;-68
2022/05/09 12:46:04;;;;;;;0.00;0.00;;;24.00;98.50;;;;;;4937583;29;20043;-67
2022/05/09 12:48:30;;;;;;;0.00;0.00;;;24.00;97.80;;;;;;4934430;29;20078;-67
2022/05/09 12:51:04;;;;;;;0.15;0.15;;;24.10;97.60;;;;;;4929506;29;20510;-67
2022/05/09 12:53:33;;;;;;;;;;;24.00;97.60;;;;;;4945326;29;20106;-68
2022/05/09 12:56:06;;;;;;;0.08;0.08;;;24.10;97.60;;;;;;4950052;29;20001;-68
2022/05/09 12:58:36;;;;;;;0.10;0.10;;;23.70;97.90;;;;;;4949497;29;20043;-68
2022/05/09 13:01:10;;;;;;;0.03;0.03;;;23.40;97.50;;;;;;4929370;29;20051;-68
2022/05/09 13:03:45;;;;;;;0.00;0.00;;;23.30;97.40;;;;;;4912925;29;20066;-68
2022/05/09 13:06:19;;;;;;;0.00;0.00;;;23.50;97.40;;;;;;4930198;29;20103;-68
2022/05/09 13:08:45;;;;;;;0.10;0.10;;;23.20;97.50;;;;;;4930396;29;20064;-68
2022/05/09 13:11:16;;;;;;;0.08;0.08;;;23.60;97.90;;;;;;4929998;29;20646;-68
2022/05/09 13:14:05;;;;;;;0.10;0.10;;;23.10;97.40;;;;;;4930873;29;20044;-68
2022/05/09 13:16:35;;;;;;;0.17;0.10;;;23.10;97.70;;;;;;4938505;29;20087;-68
2022/05/09 13:19:02;;;;;;;0.45;0.20;;;23.20;97.70;;;;;;4938926;29;20407;-68